sensor_id;sensor_type;location;lat;lon;timestamp;pressure;altitude;pressure_sealevel;temperature;humidity
26087;BME280;13851;43.434;28.338;2023-05-02T00:00:54;100258.34;;;12.24;100.00
26087;BME280;13851;43.434;28.338;2023-05-02T00:03:20;100502.22;;;13.30;100.00
26087;BME280;13851;43.434;28.338;2023-05-02T00:05:46;100513.09;;;13.46;100.00
26087;BME280;13851;43.434;28.338;2023-05-02T00:08:11;100473.88;;;12.98;100.00
26087;BME280;13851;43.434;28.338;2023-05-02T00:10:37;100524.72;;;13.34;100.00
26087;BME280;13851;43.434;28.338;2023-05-02T00:13:02;100520.81;;;13.20;100.00
26087;BME280;13851;43.434;28.338;2023-05-02T00:15:28;100514.91;;;13.08;100.00
26087;BME280;13851;43.434;28.338;2023-05-02T00:17:54;100491.47;;;12.89;100.00
26087;BME280;13851;43.434;28.338;2023-05-02T00:20:19;100511.53;;;12.98;100.00
26087;BME280;13851;43.434;28.338;2023-05-02T00:22:45;100517.16;;;13.05;100.00
26087;BME280;13851;43.434;28.338;2023-05-02T00:25:10;100508.66;;;13.14;100.00
26087;BME280;13851;43.434;28.338;2023-05-02T00:27:40;100437.91;;;12.85;100.00
26087;BME280;13851;43.434;28.338;2023-05-02T00:30:06;100160.06;;;11.34;100.00
26087;BME280;13851;43.434;28.338;2023-05-02T00:32:32;100522.81;;;13.57;100.00
26087;BME280;13851;43.434;28.338;2023-05-02T00:34:58;100514.75;;;13.70;100.00
26087;BME280;13851;43.434;28.338;2023-05-02T00:37:25;100261.44;;;12.21;100.00
26087;BME280;13851;43.434;28.338;2023-05-02T00:39:51;100300.78;;;12.44;100.00
26087;BME280;13851;43.434;28.338;2023-05-02T00:42:17;100471.69;;;13.40;100.00
26087;BME280;13851;43.434;28.338;2023-05-02T00:44:42;100524.13;;;13.61;100.00
26087;BME280;13851;43.434;28.338;2023-05-02T00:47:08;100475.69;;;13.37;100.00
26087;BME280;13851;43.434;28.338;2023-05-02T00:49:33;100518.84;;;13.74;100.00
26087;BME280;13851;43.434;28.338;2023-05-02T00:51:59;100529.97;;;13.81;100.00
26087;BME280;13851;43.434;28.338;2023-05-02T00:54:24;100519.25;;;13.86;100.00
26087;BME280;13851;43.434;28.338;2023-05-02T00:56:50;100517.47;;;13.93;100.00
26087;BME280;13851;43.434;28.338;2023-05-02T00:59:16;100496.75;;;13.83;100.00
26087;BME280;13851;43.434;28.338;2023-05-02T01:01:59;100512.13;;;13.92;100.00
26087;BME280;13851;43.434;28.338;2023-05-02T01:07:45;100517.84;;;13.90;100.00
26087;BME280;13851;43.434;28.338;2023-05-02T01:15:29;100411.38;;;13.53;100.00
26087;BME280;13851;43.434;28.338;2023-05-02T01:17:59;100524.31;;;13.83;100.00
26087;BME280;13851;43.434;28.338;2023-05-02T01:20:27;100521.75;;;14.11;100.00
26087;BME280;13851;43.434;28.338;2023-05-02T01:23:01;100513.50;;;14.11;100.00
26087;BME280;13851;43.434;28.338;2023-05-02T01:28:28;100518.81;;;14.27;100.00
26087;BME280;13851;43.434;28.338;2023-05-02T01:30:55;100499.72;;;14.11;100.00
26087;BME280;13851;43.434;28.338;2023-05-02T01:33:23;100523.19;;;14.36;100.00
26087;BME280;13851;43.434;28.338;2023-05-02T01:35:51;100494.97;;;14.19;99.84
26087;BME280;13851;43.434;28.338;2023-05-02T01:38:18;100532.31;;;14.22;98.75
26087;BME280;13851;43.434;28.338;2023-05-02T01:40:44;100507.22;;;14.46;98.70
26087;BME280;13851;43.434;28.338;2023-05-02T01:43:14;100522.25;;;14.59;94.03
26087;BME280;13851;43.434;28.338;2023-05-02T01:45:46;100532.34;;;14.51;91.30
26087;BME280;13851;43.434;28.338;2023-05-02T01:48:13;100445.66;;;14.24;89.78
26087;BME280;13851;43.434;28.338;2023-05-02T01:50:41;100181.03;;;12.65;86.61
26087;BME280;13851;43.434;28.338;2023-05-02T01:53:09;100521.66;;;14.63;83.92
26087;BME280;13851;43.434;28.338;2023-05-02T01:55:42;100498.59;;;14.49;82.11
26087;BME280;13851;43.434;28.338;2023-05-02T01:58:10;100505.81;;;14.50;81.36
26087;BME280;13851;43.434;28.338;2023-05-02T02:00:37;100508.84;;;14.55;81.31
26087;BME280;13851;43.434;28.338;2023-05-02T02:03:06;99879.44;;;10.81;81.34
26087;BME280;13851;43.434;28.338;2023-05-02T02:05:33;100466.34;;;14.35;79.56
26087;BME280;13851;43.434;28.338;2023-05-02T02:08:00;100490.50;;;14.48;76.66
26087;BME280;13851;43.434;28.338;2023-05-02T02:10:28;100503.31;;;14.11;75.20
26087;BME280;13851;43.434;28.338;2023-05-02T02:13:23;100514.06;;;14.36;75.26
26087;BME280;13851;43.434;28.338;2023-05-02T02:15:52;100440.34;;;13.78;74.05
26087;BME280;13851;43.434;28.338;2023-05-02T02:18:24;100462.94;;;13.74;74.06
26087;BME280;13851;43.434;28.338;2023-05-02T02:20:52;100499.53;;;14.12;75.07
26087;BME280;13851;43.434;28.338;2023-05-02T02:23:21;100513.31;;;14.27;76.01
26087;BME280;13851;43.434;28.338;2023-05-02T02:25:49;100573.19;;;14.33;76.92
26087;BME280;13851;43.434;28.338;2023-05-02T02:28:17;100479.28;;;14.20;75.36
26087;BME280;13851;43.434;28.338;2023-05-02T02:30:43;100469.03;;;14.14;74.82
26087;BME280;13851;43.434;28.338;2023-05-02T02:33:09;100205.47;;;12.60;73.66
26087;BME280;13851;43.434;28.338;2023-05-02T02:35:39;100508.34;;;14.37;72.63
26087;BME280;13851;43.434;28.338;2023-05-02T02:38:10;100504.81;;;14.43;71.34
26087;BME280;13851;43.434;28.338;2023-05-02T02:43:46;100517.06;;;14.49;71.26
26087;BME280;13851;43.434;28.338;2023-05-02T02:46:16;100175.22;;;12.45;71.84
26087;BME280;13851;43.434;28.338;2023-05-02T02:56:15;100273.81;;;13.00;72.74
26087;BME280;13851;43.434;28.338;2023-05-02T02:58:51;100529.59;;;14.51;73.22
26087;BME280;13851;43.434;28.338;2023-05-02T03:01:21;100514.47;;;14.18;73.11
26087;BME280;13851;43.434;28.338;2023-05-02T03:03:47;100555.31;;;14.29;74.58
26087;BME280;13851;43.434;28.338;2023-05-02T03:06:17;100542.03;;;14.18;74.54
26087;BME280;13851;43.434;28.338;2023-05-02T03:08:45;100540.09;;;14.03;73.33
26087;BME280;13851;43.434;28.338;2023-05-02T03:11:11;100496.44;;;13.63;75.22
26087;BME280;13851;43.434;28.338;2023-05-02T03:13:36;100545.84;;;13.79;75.00
26087;BME280;13851;43.434;28.338;2023-05-02T03:18:30;100208.59;;;11.65;79.64
26087;BME280;13851;43.434;28.338;2023-05-02T03:20:57;100165.28;;;11.21;78.06
26087;BME280;13851;43.434;28.338;2023-05-02T03:23:23;100544.56;;;13.21;78.02
26087;BME280;13851;43.434;28.338;2023-05-02T03:25:49;100485.50;;;13.09;76.55
26087;BME280;13851;43.434;28.338;2023-05-02T03:28:14;100572.75;;;13.31;76.01
26087;BME280;13851;43.434;28.338;2023-05-02T03:30:40;100223.88;;;11.59;75.39
26087;BME280;13851;43.434;28.338;2023-05-02T03:33:06;100560.34;;;13.73;74.52
26087;BME280;13851;43.434;28.338;2023-05-02T03:35:33;100526.72;;;13.63;74.25
26087;BME280;13851;43.434;28.338;2023-05-02T03:37:58;100547.63;;;13.72;72.75
26087;BME280;13851;43.434;28.338;2023-05-02T03:40:24;100602.88;;;13.93;71.43
26087;BME280;13851;43.434;28.338;2023-05-02T03:42:51;100247.50;;;12.22;78.98
26087;BME280;13851;43.434;28.338;2023-05-02T03:45:19;100577.81;;;14.32;100.00
26087;BME280;13851;43.434;28.338;2023-05-02T03:47:44;100569.88;;;14.52;100.00
26087;BME280;13851;43.434;28.338;2023-05-02T03:50:12;100545.75;;;14.54;100.00
26087;BME280;13851;43.434;28.338;2023-05-02T03:52:37;100597.13;;;15.06;98.39
26087;BME280;13851;43.434;28.338;2023-05-02T03:55:03;100198.78;;;13.07;100.00
26087;BME280;13851;43.434;28.338;2023-05-02T03:57:30;100628.03;;;15.68;89.52
26087;BME280;13851;43.434;28.338;2023-05-02T03:59:55;100499.72;;;15.27;80.40
26087;BME280;13851;43.434;28.338;2023-05-02T04:02:24;100571.03;;;15.88;78.74
26087;BME280;13851;43.434;28.338;2023-05-02T04:04:50;100598.34;;;16.26;72.24
26087;BME280;13851;43.434;28.338;2023-05-02T04:07:16;100220.53;;;14.03;65.72
26087;BME280;13851;43.434;28.338;2023-05-02T04:09:44;100659.56;;;16.01;72.61
26087;BME280;13851;43.434;28.338;2023-05-02T04:12:10;100638.75;;;15.77;78.08
26087;BME280;13851;43.434;28.338;2023-05-02T04:14:35;100582.31;;;15.50;80.22
26087;BME280;13851;43.434;28.338;2023-05-02T04:17:01;100265.06;;;13.71;81.81
26087;BME280;13851;43.434;28.338;2023-05-02T04:19:26;100622.28;;;15.91;83.70
26087;BME280;13851;43.434;28.338;2023-05-02T04:21:52;100610.00;;;15.93;84.32
26087;BME280;13851;43.434;28.338;2023-05-02T04:24:17;100627.47;;;16.00;92.79
26087;BME280;13851;43.434;28.338;2023-05-02T04:26:43;100564.31;;;15.54;95.86
26087;BME280;13851;43.434;28.338;2023-05-02T04:29:09;100248.72;;;13.84;95.25
26087;BME280;13851;43.434;28.338;2023-05-02T04:31:34;100649.81;;;16.27;94.31
26087;BME280;13851;43.434;28.338;2023-05-02T04:34:00;100592.31;;;16.16;93.10
26087;BME280;13851;43.434;28.338;2023-05-02T04:36:26;100660.38;;;16.45;91.56
26087;BME280;13851;43.434;28.338;2023-05-02T04:38:53;100274.88;;;14.52;89.36
26087;BME280;13851;43.434;28.338;2023-05-02T04:41:18;100606.06;;;16.65;86.80
26087;BME280;13851;43.434;28.338;2023-05-02T04:43:44;100645.44;;;16.95;85.95
26087;BME280;13851;43.434;28.338;2023-05-02T04:46:09;100622.22;;;16.96;83.09
26087;BME280;13851;43.434;28.338;2023-05-02T04:48:35;100376.38;;;15.63;80.69
26087;BME280;13851;43.434;28.338;2023-05-02T04:51:01;100639.63;;;17.31;79.93
26087;BME280;13851;43.434;28.338;2023-05-02T04:53:26;100620.19;;;17.25;78.92
26087;BME280;13851;43.434;28.338;2023-05-02T04:55:52;100638.63;;;17.52;80.75
26087;BME280;13851;43.434;28.338;2023-05-02T04:58:18;100646.97;;;17.65;80.78
26087;BME280;13851;43.434;28.338;2023-05-02T05:00:44;100321.72;;;15.86;78.83
26087;BME280;13851;43.434;28.338;2023-05-02T05:03:12;100625.00;;;17.51;76.99
26087;BME280;13851;43.434;28.338;2023-05-02T05:05:37;100609.19;;;17.45;76.54
26087;BME280;13851;43.434;28.338;2023-05-02T05:08:03;100645.09;;;17.66;76.82
26087;BME280;13851;43.434;28.338;2023-05-02T05:10:29;100654.28;;;17.80;76.76
26087;BME280;13851;43.434;28.338;2023-05-02T05:12:57;100697.66;;;18.14;77.24
26087;BME280;13851;43.434;28.338;2023-05-02T05:15:23;100657.13;;;18.19;79.43
26087;BME280;13851;43.434;28.338;2023-05-02T05:17:50;100637.06;;;18.17;79.68
26087;BME280;13851;43.434;28.338;2023-05-02T05:20:16;100686.13;;;18.37;80.08
26087;BME280;13851;43.434;28.338;2023-05-02T05:22:41;100635.34;;;18.36;80.17
26087;BME280;13851;43.434;28.338;2023-05-02T05:25:08;100611.88;;;18.26;81.88
26087;BME280;13851;43.434;28.338;2023-05-02T05:27:34;100626.16;;;18.36;85.39
26087;BME280;13851;43.434;28.338;2023-05-02T05:30:00;100663.06;;;18.63;86.49
26087;BME280;13851;43.434;28.338;2023-05-02T05:32:26;100574.34;;;18.16;87.74
26087;BME280;13851;43.434;28.338;2023-05-02T05:34:52;100560.25;;;18.11;81.00
26087;BME280;13851;43.434;28.338;2023-05-02T05:37:21;100593.97;;;18.35;80.36
26087;BME280;13851;43.434;28.338;2023-05-02T05:39:47;100653.69;;;18.84;79.57
26087;BME280;13851;43.434;28.338;2023-05-02T05:42:12;100644.69;;;18.88;77.83
26087;BME280;13851;43.434;28.338;2023-05-02T05:44:38;100685.47;;;18.88;76.11
26087;BME280;13851;43.434;28.338;2023-05-02T05:47:04;100380.78;;;17.34;70.00
26087;BME280;13851;43.434;28.338;2023-05-02T05:49:30;100385.69;;;17.45;67.89
26087;BME280;13851;43.434;28.338;2023-05-02T05:52:02;100614.41;;;18.80;67.88
26087;BME280;13851;43.434;28.338;2023-05-02T05:54:28;100605.22;;;18.80;71.81
26087;BME280;13851;43.434;28.338;2023-05-02T05:56:53;100709.97;;;19.17;74.76
26087;BME280;13851;43.434;28.338;2023-05-02T05:59:19;100693.91;;;19.33;74.96
26087;BME280;13851;43.434;28.338;2023-05-02T06:01:45;100681.91;;;19.45;75.37
26087;BME280;13851;43.434;28.338;2023-05-02T06:04:10;100468.97;;;18.10;73.84
26087;BME280;13851;43.434;28.338;2023-05-02T06:06:36;100420.75;;;18.11;72.69
26087;BME280;13851;43.434;28.338;2023-05-02T06:09:02;100677.28;;;19.78;71.62
26087;BME280;13851;43.434;28.338;2023-05-02T06:11:28;100647.84;;;19.57;70.61
26087;BME280;13851;43.434;28.338;2023-05-02T06:13:54;100685.81;;;19.83;75.85
26087;BME280;13851;43.434;28.338;2023-05-02T06:16:20;100640.19;;;19.52;78.05
26087;BME280;13851;43.434;28.338;2023-05-02T06:18:46;100381.09;;;18.10;78.89
26087;BME280;13851;43.434;28.338;2023-05-02T06:21:11;100668.31;;;20.07;77.51
26087;BME280;13851;43.434;28.338;2023-05-02T06:23:37;100630.72;;;19.98;70.69
26087;BME280;13851;43.434;28.338;2023-05-02T06:26:04;100688.75;;;20.51;68.84
26087;BME280;13851;43.434;28.338;2023-05-02T06:28:30;100393.97;;;18.88;61.90
26087;BME280;13851;43.434;28.338;2023-05-02T06:30:57;100572.66;;;20.08;61.81
26087;BME280;13851;43.434;28.338;2023-05-02T06:33:23;100633.88;;;20.33;62.59
26087;BME280;13851;43.434;28.338;2023-05-02T06:35:52;100556.19;;;19.12;64.47
26087;BME280;13851;43.434;28.338;2023-05-02T06:38:18;100698.78;;;19.44;67.94
26087;BME280;13851;43.434;28.338;2023-05-02T06:40:43;100697.13;;;19.30;61.59
26087;BME280;13851;43.434;28.338;2023-05-02T06:43:10;100630.81;;;18.82;59.11
26087;BME280;13851;43.434;28.338;2023-05-02T06:45:35;100678.66;;;18.90;62.07
26087;BME280;13851;43.434;28.338;2023-05-02T06:48:01;100694.56;;;19.28;65.47
26087;BME280;13851;43.434;28.338;2023-05-02T06:50:28;100714.53;;;18.92;100.00
26087;BME280;13851;43.434;28.338;2023-05-02T06:52:53;100614.34;;;17.54;100.00
26087;BME280;13851;43.434;28.338;2023-05-02T06:55:19;100709.22;;;17.70;100.00
26087;BME280;13851;43.434;28.338;2023-05-02T06:57:45;100626.88;;;16.89;100.00
26087;BME280;13851;43.434;28.338;2023-05-02T07:00:11;100708.66;;;16.98;100.00
26087;BME280;13851;43.434;28.338;2023-05-02T07:02:37;100730.63;;;16.72;100.00
26087;BME280;13851;43.434;28.338;2023-05-02T07:05:03;100386.69;;;14.76;100.00
26087;BME280;13851;43.434;28.338;2023-05-02T07:07:29;100722.91;;;16.67;100.00
26087;BME280;13851;43.434;28.338;2023-05-02T07:09:54;100797.81;;;16.66;100.00
26087;BME280;13851;43.434;28.338;2023-05-02T07:12:20;100660.56;;;16.15;100.00
26087;BME280;13851;43.434;28.338;2023-05-02T07:14:46;100700.66;;;16.04;100.00
26087;BME280;13851;43.434;28.338;2023-05-02T07:17:11;100711.22;;;16.22;100.00
26087;BME280;13851;43.434;28.338;2023-05-02T07:19:37;100411.56;;;14.47;100.00
26087;BME280;13851;43.434;28.338;2023-05-02T07:22:02;100338.88;;;14.12;100.00
26087;BME280;13851;43.434;28.338;2023-05-02T07:24:28;100396.59;;;14.49;100.00
26087;BME280;13851;43.434;28.338;2023-05-02T07:26:54;100677.75;;;16.10;100.00
26087;BME280;13851;43.434;28.338;2023-05-02T07:29:19;100795.63;;;16.61;100.00
26087;BME280;13851;43.434;28.338;2023-05-02T07:31:45;100729.03;;;16.84;100.00
26087;BME280;13851;43.434;28.338;2023-05-02T07:34:11;100650.44;;;16.50;100.00
26087;BME280;13851;43.434;28.338;2023-05-02T07:36:36;100382.81;;;15.14;100.00
26087;BME280;13851;43.434;28.338;2023-05-02T07:39:02;100726.63;;;17.09;100.00
26087;BME280;13851;43.434;28.338;2023-05-02T07:41:27;100690.34;;;16.97;100.00
26087;BME280;13851;43.434;28.338;2023-05-02T07:43:53;100587.13;;;16.34;100.00
26087;BME280;13851;43.434;28.338;2023-05-02T07:46:18;100729.59;;;17.07;100.00
26087;BME280;13851;43.434;28.338;2023-05-02T07:48:44;100500.97;;;15.68;100.00
26087;BME280;13851;43.434;28.338;2023-05-02T07:51:09;100422.16;;;15.50;100.00
26087;BME280;13851;43.434;28.338;2023-05-02T07:53:35;100695.31;;;17.08;100.00
26087;BME280;13851;43.434;28.338;2023-05-02T07:56:04;100652.34;;;16.78;100.00
26087;BME280;13851;43.434;28.338;2023-05-02T07:58:35;100840.69;;;16.98;100.00
26087;BME280;13851;43.434;28.338;2023-05-02T08:01:01;100741.38;;;16.88;100.00
26087;BME280;13851;43.434;28.338;2023-05-02T08:03:28;100491.63;;;15.26;100.00
26087;BME280;13851;43.434;28.338;2023-05-02T08:05:54;100763.16;;;16.70;100.00
26087;BME280;13851;43.434;28.338;2023-05-02T08:08:19;100773.09;;;16.85;100.00
26087;BME280;13851;43.434;28.338;2023-05-02T08:10:45;100733.06;;;16.81;100.00
26087;BME280;13851;43.434;28.338;2023-05-02T08:13:11;100742.13;;;17.03;100.00
26087;BME280;13851;43.434;28.338;2023-05-02T08:15:37;100720.69;;;17.12;100.00
26087;BME280;13851;43.434;28.338;2023-05-02T08:18:02;100480.94;;;15.66;100.00
26087;BME280;13851;43.434;28.338;2023-05-02T08:20:28;100640.41;;;16.77;100.00
26087;BME280;13851;43.434;28.338;2023-05-02T08:22:53;100747.81;;;17.30;100.00
26087;BME280;13851;43.434;28.338;2023-05-02T08:25:19;100733.44;;;17.48;100.00
26087;BME280;13851;43.434;28.338;2023-05-02T08:27:45;100788.00;;;17.47;100.00
26087;BME280;13851;43.434;28.338;2023-05-02T08:30:11;100742.59;;;17.48;100.00
26087;BME280;13851;43.434;28.338;2023-05-02T08:32:37;100457.94;;;15.86;100.00
26087;BME280;13851;43.434;28.338;2023-05-02T08:35:03;100693.59;;;16.73;100.00
26087;BME280;13851;43.434;28.338;2023-05-02T08:37:28;100511.41;;;15.51;100.00
26087;BME280;13851;43.434;28.338;2023-05-02T08:39:54;100359.59;;;14.80;100.00
26087;BME280;13851;43.434;28.338;2023-05-02T08:42:20;100722.03;;;16.67;100.00
26087;BME280;13851;43.434;28.338;2023-05-02T08:44:47;100412.97;;;14.94;98.24
26087;BME280;13851;43.434;28.338;2023-05-02T08:47:14;100789.00;;;16.55;100.00
26087;BME280;13851;43.434;28.338;2023-05-02T08:49:41;100758.97;;;16.31;100.00
26087;BME280;13851;43.434;28.338;2023-05-02T08:52:08;100755.13;;;16.32;100.00
26087;BME280;13851;43.434;28.338;2023-05-02T08:54:36;100716.97;;;16.21;100.00
26087;BME280;13851;43.434;28.338;2023-05-02T08:57:04;100705.06;;;16.70;100.00
26087;BME280;13851;43.434;28.338;2023-05-02T08:59:30;100696.19;;;16.53;88.51
26087;BME280;13851;43.434;28.338;2023-05-02T09:02:07;100773.84;;;16.51;94.90
26087;BME280;13851;43.434;28.338;2023-05-02T09:04:37;100750.38;;;16.47;95.42
26087;BME280;13851;43.434;28.338;2023-05-02T09:07:05;100656.13;;;15.93;97.88
26087;BME280;13851;43.434;28.338;2023-05-02T09:09:32;100748.00;;;16.87;97.38
26087;BME280;13851;43.434;28.338;2023-05-02T09:11:58;100743.22;;;17.09;97.35
26087;BME280;13851;43.434;28.338;2023-05-02T09:14:24;100684.81;;;16.97;93.44
26087;BME280;13851;43.434;28.338;2023-05-02T09:16:49;100746.97;;;17.71;90.17
26087;BME280;13851;43.434;28.338;2023-05-02T09:19:24;100709.84;;;17.17;88.08
26087;BME280;13851;43.434;28.338;2023-05-02T09:21:50;100618.09;;;16.51;79.38
26087;BME280;13851;43.434;28.338;2023-05-02T09:24:20;100669.41;;;16.81;77.82
26087;BME280;13851;43.434;28.338;2023-05-02T09:27:06;100748.31;;;17.40;82.03
26087;BME280;13851;43.434;28.338;2023-05-02T09:29:33;100376.63;;;15.40;72.28
26087;BME280;13851;43.434;28.338;2023-05-02T09:32:03;100737.06;;;17.48;83.52
26087;BME280;13851;43.434;28.338;2023-05-02T09:34:29;100789.06;;;17.46;75.58
26087;BME280;13851;43.434;28.338;2023-05-02T09:36:55;100729.97;;;17.32;73.31
26087;BME280;13851;43.434;28.338;2023-05-02T09:39:24;100739.84;;;17.13;78.07
26087;BME280;13851;43.434;28.338;2023-05-02T09:41:50;100343.38;;;14.70;79.10
26087;BME280;13851;43.434;28.338;2023-05-02T09:44:20;100511.00;;;16.03;69.31
26087;BME280;13851;43.434;28.338;2023-05-02T09:46:47;100691.78;;;17.21;65.38
26087;BME280;13851;43.434;28.338;2023-05-02T09:49:13;100752.69;;;17.62;65.96
26087;BME280;13851;43.434;28.338;2023-05-02T09:51:40;100684.44;;;17.48;71.65
26087;BME280;13851;43.434;28.338;2023-05-02T09:54:05;100740.72;;;17.97;66.84
26087;BME280;13851;43.434;28.338;2023-05-02T09:56:32;100751.72;;;17.77;60.93
26087;BME280;13851;43.434;28.338;2023-05-02T09:59:16;100737.53;;;17.52;60.66
26087;BME280;13851;43.434;28.338;2023-05-02T10:01:42;100370.09;;;14.91;67.07
26087;BME280;13851;43.434;28.338;2023-05-02T10:04:11;100737.38;;;17.25;68.69
26087;BME280;13851;43.434;28.338;2023-05-02T10:06:44;100768.50;;;17.68;64.81
26087;BME280;13851;43.434;28.338;2023-05-02T10:09:10;100725.16;;;18.02;58.56
26087;BME280;13851;43.434;28.338;2023-05-02T10:11:38;100719.63;;;18.15;70.18
26087;BME280;13851;43.434;28.338;2023-05-02T10:14:10;100724.53;;;18.47;64.35
26087;BME280;13851;43.434;28.338;2023-05-02T10:16:47;100765.13;;;18.54;59.93
26087;BME280;13851;43.434;28.338;2023-05-02T10:19:23;100676.63;;;17.72;55.46
26087;BME280;13851;43.434;28.338;2023-05-02T10:21:50;100450.22;;;16.45;56.24
26087;BME280;13851;43.434;28.338;2023-05-02T10:24:16;100532.34;;;16.92;57.42
26087;BME280;13851;43.434;28.338;2023-05-02T10:26:42;100672.44;;;17.82;60.82
26087;BME280;13851;43.434;28.338;2023-05-02T10:29:09;100763.00;;;18.43;55.77
26087;BME280;13851;43.434;28.338;2023-05-02T10:31:35;100804.28;;;18.11;55.76
26087;BME280;13851;43.434;28.338;2023-05-02T10:34:03;100653.44;;;17.73;56.98
26087;BME280;13851;43.434;28.338;2023-05-02T10:36:30;100772.38;;;18.55;54.82
26087;BME280;13851;43.434;28.338;2023-05-02T10:38:57;100621.84;;;17.67;55.84
26087;BME280;13851;43.434;28.338;2023-05-02T10:41:26;100619.53;;;17.84;64.66
26087;BME280;13851;43.434;28.338;2023-05-02T10:43:52;100641.31;;;18.40;61.81
26087;BME280;13851;43.434;28.338;2023-05-02T10:51:31;100366.75;;;16.96;52.27
26087;BME280;13851;43.434;28.338;2023-05-02T10:59:41;100748.41;;;19.40;55.74
26087;BME280;13851;43.434;28.338;2023-05-02T11:05:01;100766.84;;;19.02;63.32
26087;BME280;13851;43.434;28.338;2023-05-02T11:07:29;100689.53;;;18.52;66.25
26087;BME280;13851;43.434;28.338;2023-05-02T11:12:49;100751.06;;;18.76;64.50
26087;BME280;13851;43.434;28.338;2023-05-02T11:18:06;100738.88;;;18.96;64.01
26087;BME280;13851;43.434;28.338;2023-05-02T11:20:33;100744.00;;;18.93;80.54
26087;BME280;13851;43.434;28.338;2023-05-02T11:25:47;100746.34;;;18.50;64.51
26087;BME280;13851;43.434;28.338;2023-05-02T11:33:59;100491.59;;;17.54;75.70
26087;BME280;13851;43.434;28.338;2023-05-02T11:36:31;100702.03;;;19.28;78.65
26087;BME280;13851;43.434;28.338;2023-05-02T11:39:00;100731.00;;;19.58;73.15
26087;BME280;13851;43.434;28.338;2023-05-02T11:41:40;100706.59;;;19.02;84.65
26087;BME280;13851;43.434;28.338;2023-05-02T11:44:06;100730.69;;;19.28;77.27
26087;BME280;13851;43.434;28.338;2023-05-02T11:46:32;100416.16;;;17.45;81.18
26087;BME280;13851;43.434;28.338;2023-05-02T11:49:00;100698.72;;;18.86;90.98
26087;BME280;13851;43.434;28.338;2023-05-02T11:51:27;100719.00;;;18.93;89.78
26087;BME280;13851;43.434;28.338;2023-05-02T11:53:52;100711.31;;;18.55;84.81
26087;BME280;13851;43.434;28.338;2023-05-02T11:56:23;100726.25;;;18.41;90.07
26087;BME280;13851;43.434;28.338;2023-05-02T11:58:59;100494.69;;;16.91;83.90
26087;BME280;13851;43.434;28.338;2023-05-02T12:01:25;100385.31;;;16.41;88.60
26087;BME280;13851;43.434;28.338;2023-05-02T12:04:00;100383.59;;;16.33;88.03
26087;BME280;13851;43.434;28.338;2023-05-02T12:06:26;100751.44;;;18.33;89.03
26087;BME280;13851;43.434;28.338;2023-05-02T12:09:05;100745.03;;;18.52;78.25
26087;BME280;13851;43.434;28.338;2023-05-02T12:11:31;100742.47;;;18.37;74.48
26087;BME280;13851;43.434;28.338;2023-05-02T12:13:57;100740.78;;;18.83;73.95
26087;BME280;13851;43.434;28.338;2023-05-02T12:16:23;100685.06;;;18.64;74.44
26087;BME280;13851;43.434;28.338;2023-05-02T12:18:49;100741.81;;;19.21;61.83
26087;BME280;13851;43.434;28.338;2023-05-02T12:21:16;100791.22;;;19.00;66.51
26087;BME280;13851;43.434;28.338;2023-05-02T12:23:42;100768.09;;;19.19;70.59
26087;BME280;13851;43.434;28.338;2023-05-02T12:26:24;100734.75;;;19.19;69.67
26087;BME280;13851;43.434;28.338;2023-05-02T12:28:54;100743.31;;;19.17;73.70
26087;BME280;13851;43.434;28.338;2023-05-02T12:31:19;100396.34;;;17.02;72.52
26087;BME280;13851;43.434;28.338;2023-05-02T12:33:46;100720.63;;;19.34;71.42
26087;BME280;13851;43.434;28.338;2023-05-02T12:36:17;100722.16;;;19.30;74.37
26087;BME280;13851;43.434;28.338;2023-05-02T12:38:50;100669.03;;;18.93;76.36
26087;BME280;13851;43.434;28.338;2023-05-02T12:41:18;100665.63;;;18.91;78.74
26087;BME280;13851;43.434;28.338;2023-05-02T12:43:48;100706.53;;;19.35;76.71
26087;BME280;13851;43.434;28.338;2023-05-02T12:46:15;100714.97;;;19.60;77.10
26087;BME280;13851;43.434;28.338;2023-05-02T12:48:41;100588.03;;;19.09;72.66
26087;BME280;13851;43.434;28.338;2023-05-02T12:51:19;100685.53;;;19.91;75.49
26087;BME280;13851;43.434;28.338;2023-05-02T12:53:45;100699.91;;;20.19;59.09
26087;BME280;13851;43.434;28.338;2023-05-02T12:56:12;100616.09;;;19.78;59.78
26087;BME280;13851;43.434;28.338;2023-05-02T12:58:46;100714.81;;;19.93;59.04
26087;BME280;13851;43.434;28.338;2023-05-02T13:01:13;100704.50;;;19.62;64.95
26087;BME280;13851;43.434;28.338;2023-05-02T13:03:40;100698.63;;;19.84;64.41
26087;BME280;13851;43.434;28.338;2023-05-02T13:06:06;100684.75;;;19.77;68.19
26087;BME280;13851;43.434;28.338;2023-05-02T13:08:32;100712.34;;;19.79;65.06
26087;BME280;13851;43.434;28.338;2023-05-02T13:10:59;100719.41;;;19.81;63.16
26087;BME280;13851;43.434;28.338;2023-05-02T13:13:25;100400.38;;;17.39;71.85
26087;BME280;13851;43.434;28.338;2023-05-02T13:15:50;100726.03;;;19.15;73.21
26087;BME280;13851;43.434;28.338;2023-05-02T13:18:16;100733.53;;;19.02;73.34
26087;BME280;13851;43.434;28.338;2023-05-02T13:20:41;100727.50;;;19.25;72.42
26087;BME280;13851;43.434;28.338;2023-05-02T13:23:07;100692.50;;;19.10;70.88
26087;BME280;13851;43.434;28.338;2023-05-02T13:25:32;100713.22;;;19.08;75.82
26087;BME280;13851;43.434;28.338;2023-05-02T13:27:58;100384.59;;;16.93;76.49
26087;BME280;13851;43.434;28.338;2023-05-02T13:30:23;100719.66;;;18.88;74.44